Valley Peak, Santa Cruz Island Reserve, California Weather observations

Data are for 10 minute period ending at time listed.
 Day   Time   Solar   Ave.   Ave.  Ave.  Vector  Max.   Baro.   Total    
  of    of     Rad.   Air    Rel.  Wind   Wind   Wind  Press.  Precip.   
Year   Day            Temp.  Hum.  Speed  Dir.   Gust                    
2015   (PST)  Kw/m2    F      %     mph   deg.    mph    mb.     in.     
-------------------------------------------------------------------------
 107   15:30   0.59   78.0    11    9.5   249    15.5   966.6    0.00 
 107   15:40   0.56   77.3    11   11.8   254    18.2   966.5    0.00 
 107   15:50   0.52   75.5    11   13.1   255    20.0   966.4    0.00 
 107   16:00   0.48   75.1    11   15.0   253    21.7   966.3    0.00 
 107   16:10   0.45   74.3    11   15.4   256    23.7   966.2    0.00 
 107   16:20   0.41   73.5    11   16.7   253    23.8   966.1    0.00 
 107   16:30   0.37   73.1    12   15.5   254    21.7   966.0    0.00 
 107   16:40   0.34   73.8    12   10.8   251    15.3   966.0    0.00 
 107   16:50   0.30   73.7    12   12.2   250    17.7   966.0    0.00 
 107   17:00   0.26   72.3    13   12.5   253    16.8   965.9    0.00 
 107   17:10   0.22   71.7    12   12.1   254    16.5   965.9    0.00 
 107   17:20   0.19   71.3    13   11.5   256    16.6   965.9    0.00 
 107   17:30   0.15   70.5    15   12.1   253    15.4   965.9    0.00 
 107   17:40   0.12   69.4    17   10.5   255    13.4   966.0    0.00 
 107   17:50   0.09   68.2    18   10.5   257    13.7   966.0    0.00 
 107   18:00   0.06   67.4    17    9.8   256    12.6   966.0    0.00 
 107   18:10   0.04   66.3    16    8.7   264    12.3   966.0    0.00 
 107   18:20   0.02   66.5    15    9.1   275    12.1   966.0    0.00 
 107   18:30   0.01   66.3    15    8.3   287    12.0   966.2    0.00 
 107   18:40   0.00   65.8    16    8.0   298    12.4   966.3    0.00 
 107   18:50   0.00   66.0    16    9.1   297    15.9   966.3    0.00 
 107   19:00   0.00   66.0    16    9.1   302    15.4   966.3    0.00 
 107   19:10   0.00   66.0    16    7.9   304    16.4   966.4    0.00 
 107   19:20   0.00   65.7    16    8.4   318    15.8   966.6    0.00 
 107   19:30   0.00   66.0    16   12.1   321    20.3   966.6    0.00 
 107   19:40   0.00   66.3    16   11.1   323    20.7   966.7    0.00 
 107   19:50   0.00   66.3    16   10.1   333    18.9   966.8    0.00 
 107   20:00   0.00   66.1    16    8.2   348    15.3   966.9    0.00 
 107   20:10   0.00   64.8    17   10.3    11    15.1   966.9    0.00 
 107   20:20   0.00   65.0    16    9.7   360    19.7   966.9    0.00 
 107   20:30   0.00   65.1    16    8.9    11    15.7   967.0    0.00 
 107   20:40   0.00   65.6    16    6.2   348    10.7   967.2    0.00 
 107   20:50   0.00   65.7    16    6.6   346    12.1   967.3    0.00 
 107   21:00   0.00   65.7    16    9.2   350    13.2   967.3    0.00 
 107   21:10   0.00   65.7    16   10.7   351    15.4   967.4    0.00 
 107   21:20   0.00   65.8    16   11.6   338    18.3   967.3    0.00 
 107   21:30   0.00   65.7    16    9.3   344    14.4   967.4    0.00 
 107   21:40   0.00   65.7    16    9.0   331    14.2   967.4    0.00 
 107   21:50   0.00   66.1    16    8.7   308    12.9   967.3    0.00 
 107   22:00   0.00   65.9    16    7.9   315    13.2   967.2    0.00 
 107   22:10   0.00   66.4    16    7.7   316    11.7   967.2    0.00 
 107   22:20   0.00   66.5    16    6.4   316    12.9   967.3    0.00 
 107   22:30   0.00   66.7    16    8.6   341    13.8   967.3    0.00 
 107   22:40   0.00   67.2    15    9.9   334    16.8   967.2    0.00 
 107   22:50   0.00   67.2    16    9.2   325    16.0   967.2    0.00 
 107   23:00   0.00   66.8    16    5.8   319    11.7   967.2    0.00 
 107   23:10   0.00   66.3    16    7.5     7    10.8   967.2    0.00 
 107   23:20   0.00   65.3    18    9.9   355    16.0   967.2    0.00 
 107   23:30   0.00   66.7    17   12.5   356    20.8   967.0    0.00 
 107   23:40   0.00   66.4    18   12.9     1    18.3   967.0    0.00 
 107   23:50   0.00   65.5    19   12.2    12    17.9   967.0    0.00 
 108    0:00   0.00   65.1    20   12.7     9    21.9   966.9    0.00 
 108    0:10   0.00   64.9    21   11.6     4    17.0   966.9    0.00 
 108    0:20   0.00   65.3    20   11.2   354    18.6   966.8    0.00 
 108    0:30   0.00   65.5    19    9.1   345    13.8   966.9    0.00 
 108    0:40   0.00   65.5    20    9.1   343    12.2   966.8    0.00 
 108    0:50   0.00   65.7    20    9.7   350    12.7   966.6    0.00 
 108    1:00   0.00   65.6    20   10.1   351    13.4   966.6    0.00 
 108    1:10   0.00   65.4    20    9.5   348    12.1   966.5    0.00 
 108    1:20   0.00   65.0    20   10.2   353    13.1   966.4    0.00 
 108    1:30   0.00   65.2    20   11.1   349    14.8   966.4    0.00 
 108    1:40   0.00   65.0    20   12.5   342    17.2   966.3    0.00 
 108    1:50   0.00   64.1    22   11.5   345    15.3   966.2    0.00 
 108    2:00   0.00   64.2    21   11.3   339    14.2   966.2    0.00 
 108    2:10   0.00   63.9    21   10.0   336    14.0   966.2    0.00 
 108    2:20   0.00   64.7    19    8.6   318    12.1   966.2    0.00 
 108    2:30   0.00   64.7    20    6.0   342     8.5   966.2    0.00 
 108    2:40   0.00   64.1    21    4.2   332     5.6   966.3    0.00 
 108    2:50   0.00   64.6    20    3.2   279     4.7   966.3    0.00 
 108    3:00   0.00   64.6    20    2.0   216     4.5   966.3    0.00 
 108    3:10   0.00   63.2    23    2.5    13     3.7   966.3    0.00 
 108    3:20   0.00   62.4    23    2.1   271     3.6   966.3    0.00 
 108    3:30   0.00   64.2    20    3.0   250     3.9   966.2    0.00 
 108    3:40   0.00   64.7    20    4.4   270     5.3   966.2    0.00 
 108    3:50   0.00   63.5    22    4.2   266     5.8   966.3    0.00 
 108    4:00   0.00   63.3    22    3.5   247     4.5   966.2    0.00 
 108    4:10   0.00   63.3    21    3.4   258     4.6   966.2    0.00 
 108    4:20   0.00   63.2    22    4.0   267     5.0   966.2    0.00 
 108    4:30   0.00   62.8    23    4.8   240     5.6   966.2    0.00 
 108    4:40   0.00   62.3    24    4.9   212     5.8   966.3    0.00 
 108    4:50   0.00   62.2    24    5.0   208     6.1   966.3    0.00 
 108    5:00   0.00   63.7    21    3.2   198     4.5   966.3    0.00 
 108    5:10   0.00   64.9    20    2.6   294     4.4   966.3    0.00 
 108    5:20   0.00   65.7    20    3.4   317     6.1   966.3    0.00 
 108    5:30   0.00   66.0    20    4.3   305     5.9   966.3    0.00 
 108    5:40   0.01   66.1    20    5.3   304     6.3   966.3    0.00 
 108    5:50   0.03   66.0    20    3.6   349     5.1   966.4    0.00 
 108    6:00   0.07   65.3    21    3.9   359     5.7   966.4    0.00 
 108    6:10   0.09   66.1    21    4.1     2     6.0   966.5    0.00 
 108    6:20   0.13   65.6    24    2.6    53     3.9   966.5    0.00 
 108    6:30   0.17   64.8    24    2.2    96     3.4   966.5    0.00 
 108    6:40   0.20   65.9    24    2.7    91     3.9   966.5    0.00 
 108    6:50   0.24   66.8    24    3.2    53     5.0   966.6    0.00 
 108    7:00   0.28   67.0    24    1.9   104     3.4   966.6    0.00 
 108    7:10   0.32   66.8    31    2.6   126     4.2   966.6    0.00 
 108    7:20   0.36   63.7    50    4.4   139     6.2   966.7    0.00 
 108    7:30   0.40   62.5    47    4.3   139     6.6   966.7    0.00 
 108    7:40   0.43   63.3    45    5.3   151     8.0   966.8    0.00 
 108    7:50   0.47   64.4    41    4.4   152     7.7   966.8    0.00 
 108    8:00   0.51   65.1    40    5.3   163     8.3   966.8    0.00 
 108    8:10   0.54   65.1    40    7.5   169    10.0   966.8    0.00 
 108    8:20   0.58   66.1    44    6.5   154    10.6   966.7    0.00 
 108    8:30   0.61   65.8    45    7.5   162    10.6   966.7    0.00 
 108    8:40   0.64   65.3    48    8.0   155    11.9   966.7    0.00 
 108    8:50   0.67   64.8    51    9.2   166    12.1   966.8    0.00 
 108    9:00   0.70   64.1    58    8.3   161    12.9   966.9    0.00 
 108    9:10   0.73   64.7    56    7.5   162    11.2   966.9    0.00 
 108    9:20   0.76   64.5    52    6.5   173     9.6   967.0    0.00 
 108    9:30   0.79   64.9    48    5.1   175     9.0   967.1    0.00 
 108    9:40   0.81   67.0    40    4.8   174     7.1   967.2    0.00 
 108    9:50   0.84   67.4    36    5.1   176     8.8   967.2    0.00 
 108   10:00   0.86   68.5    38    3.2   197     7.5   967.1    0.00 
 108   10:10   0.88   70.5    36    2.9   177     6.4   967.0    0.00 
 108   10:20   0.90   73.0    32    3.1   150     7.5   967.0    0.00 
 108   10:30   0.92   74.2    32    2.6   135     6.1   966.9    0.00 
 108   10:40   0.93   74.5    41    3.0    69     5.8   966.8    0.00 
 108   10:50   0.94   73.5    43    3.5    68     7.7   966.6    0.00 
 108   11:00   0.95   73.1    44    3.3    68     5.8   966.6    0.00 
 108   11:10   0.96   74.6    36    2.9   113     6.5   966.6    0.00 
 108   11:20   0.97   75.5    32    2.7   127     6.6   966.6    0.00 
 108   11:30   0.97   75.7    33    4.0   128     7.2   966.5    0.00 
 108   11:40   0.97   75.3    33    3.5   115     9.2   966.4    0.00 
 108   11:50   0.98   74.8    34    2.1   120     5.4   966.2    0.00 
 108   12:00   0.98   75.6    35    2.7   111     7.5   966.0    0.00 
 108   12:10   0.98   75.7    41    2.7    71     6.1   966.0    0.00 
 108   12:20   0.97   74.5    42    3.1    85     6.6   965.9    0.00 
 108   12:30   0.97   75.8    35    2.8   128     6.9   965.9    0.00 
 108   12:40   0.96   76.9    37    2.3   106     5.5   965.9    0.00 
 108   12:50   0.95   75.8    34    2.8   128     6.9   965.9    0.00 
 108   13:00   0.94   76.7    33    2.8   143     7.0   965.9    0.00 
 108   13:10   0.93   76.5    35    2.8   131     6.7   965.9    0.00 
 108   13:20   0.92   77.1    35    3.3   130     6.8   965.9    0.00 
 108   13:30   0.90   76.1    37    2.5   140     6.9   965.9    0.00 
 108   13:40   0.88   75.8    39    1.8    96     4.7   965.8    0.00 
 108   13:50   0.86   75.0    43    2.4    60     5.6   965.6    0.00 
 108   14:00   0.84   75.1    43    2.6   100     6.9   965.6    0.00 
 108   14:10   0.82   76.2    37    2.8   102     7.4   965.7    0.00 
 108   14:20   0.79   77.3    35    2.8   107     5.6   965.6    0.00 
 108   14:30   0.77   77.1    40    2.5    59     4.7   965.5    0.00 
 108   14:40   0.74   77.1    38    2.4    57     4.2   965.3    0.00 
 108   14:50   0.71   76.9    32    2.2    63     3.9   965.3    0.00 
 108   15:00   0.68   76.9    34    2.4   101     6.2   965.2    0.00 
 108   15:10   0.65   76.4    39    1.9    54     4.5   965.1    0.00 
 108   15:20   0.61   73.7    46    2.1    25     3.7   965.0    0.00 

Return to Valley Peak, Santa Cruz Island Reserve graphs page.


Western Regional Climate Center,wrcc@dri.edu